sensor_id;sensor_type;location;lat;lon;timestamp;temperature;humidity
19389;DHT22;9830;41.876;23.474;2023-03-23T06:52:50;5.40;99.90
19389;DHT22;9830;41.876;23.474;2023-03-23T06:55:17;5.70;99.90
19389;DHT22;9830;41.876;23.474;2023-03-23T06:57:44;5.70;99.90
19389;DHT22;9830;41.876;23.474;2023-03-23T07:00:12;5.40;99.90
19389;DHT22;9830;41.876;23.474;2023-03-23T07:02:43;5.10;99.90
19389;DHT22;9830;41.876;23.474;2023-03-23T07:05:10;5.20;99.90
19389;DHT22;9830;41.876;23.474;2023-03-23T07:07:40;5.20;99.90
19389;DHT22;9830;41.876;23.474;2023-03-23T07:10:08;5.50;99.90
19389;DHT22;9830;41.876;23.474;2023-03-23T07:12:37;6.00;99.90
19389;DHT22;9830;41.876;23.474;2023-03-23T07:15:04;6.40;99.90
19389;DHT22;9830;41.876;23.474;2023-03-23T07:17:30;6.40;99.90
19389;DHT22;9830;41.876;23.474;2023-03-23T07:19:57;6.80;99.90
19389;DHT22;9830;41.876;23.474;2023-03-23T07:22:23;7.00;99.90
19389;DHT22;9830;41.876;23.474;2023-03-23T07:24:51;7.10;99.90
19389;DHT22;9830;41.876;23.474;2023-03-23T07:27:17;7.90;99.90
19389;DHT22;9830;41.876;23.474;2023-03-23T07:29:44;7.80;99.90
19389;DHT22;9830;41.876;23.474;2023-03-23T07:32:11;8.40;99.90
19389;DHT22;9830;41.876;23.474;2023-03-23T07:34:40;8.40;99.90
19389;DHT22;9830;41.876;23.474;2023-03-23T07:37:07;9.60;99.90
19389;DHT22;9830;41.876;23.474;2023-03-23T07:39:33;9.00;99.90
19389;DHT22;9830;41.876;23.474;2023-03-23T07:42:02;10.30;99.90
19389;DHT22;9830;41.876;23.474;2023-03-23T07:44:29;11.30;99.90
19389;DHT22;9830;41.876;23.474;2023-03-23T07:46:54;11.10;99.90
19389;DHT22;9830;41.876;23.474;2023-03-23T07:49:20;11.10;99.90
19389;DHT22;9830;41.876;23.474;2023-03-23T07:51:47;11.60;99.90
19389;DHT22;9830;41.876;23.474;2023-03-23T07:54:13;13.50;99.70
19389;DHT22;9830;41.876;23.474;2023-03-23T07:56:43;15.30;90.50
19389;DHT22;9830;41.876;23.474;2023-03-23T07:59:13;15.70;81.70
19389;DHT22;9830;41.876;23.474;2023-03-23T08:01:42;16.60;76.10
19389;DHT22;9830;41.876;23.474;2023-03-23T08:04:08;19.40;59.30
19389;DHT22;9830;41.876;23.474;2023-03-23T08:06:35;20.00;54.10
19389;DHT22;9830;41.876;23.474;2023-03-23T08:09:01;17.10;68.70
19389;DHT22;9830;41.876;23.474;2023-03-23T08:11:28;17.30;64.30
19389;DHT22;9830;41.876;23.474;2023-03-23T08:13:54;20.30;50.60
19389;DHT22;9830;41.876;23.474;2023-03-23T08:16:23;19.70;52.80
19389;DHT22;9830;41.876;23.474;2023-03-23T08:18:49;20.00;48.90
19389;DHT22;9830;41.876;23.474;2023-03-23T08:21:15;20.40;54.20
19389;DHT22;9830;41.876;23.474;2023-03-23T08:23:41;22.60;45.20
19389;DHT22;9830;41.876;23.474;2023-03-23T08:26:07;21.40;45.20
19389;DHT22;9830;41.876;23.474;2023-03-23T08:28:34;22.40;45.00
19389;DHT22;9830;41.876;23.474;2023-03-23T08:31:05;22.10;46.00
19389;DHT22;9830;41.876;23.474;2023-03-23T08:33:32;23.40;41.20
19389;DHT22;9830;41.876;23.474;2023-03-23T08:35:59;22.00;44.50
19389;DHT22;9830;41.876;23.474;2023-03-23T08:38:27;21.30;44.70
19389;DHT22;9830;41.876;23.474;2023-03-23T08:41:01;20.20;47.40
19389;DHT22;9830;41.876;23.474;2023-03-23T08:43:28;21.20;48.40
19389;DHT22;9830;41.876;23.474;2023-03-23T08:45:54;23.90;41.30
19389;DHT22;9830;41.876;23.474;2023-03-23T08:48:21;24.60;39.40
19389;DHT22;9830;41.876;23.474;2023-03-23T08:50:47;24.20;39.00
19389;DHT22;9830;41.876;23.474;2023-03-23T08:53:12;22.80;41.90
19389;DHT22;9830;41.876;23.474;2023-03-23T08:55:38;22.20;43.20
19389;DHT22;9830;41.876;23.474;2023-03-23T08:58:08;22.90;40.50
19389;DHT22;9830;41.876;23.474;2023-03-23T09:00:34;22.30;43.20
19389;DHT22;9830;41.876;23.474;2023-03-23T09:02:59;22.30;42.80
19389;DHT22;9830;41.876;23.474;2023-03-23T09:05:27;24.10;37.80
19389;DHT22;9830;41.876;23.474;2023-03-23T09:07:55;23.00;36.80
19389;DHT22;9830;41.876;23.474;2023-03-23T09:10:27;22.80;37.60
19389;DHT22;9830;41.876;23.474;2023-03-23T09:12:54;22.00;38.30
19389;DHT22;9830;41.876;23.474;2023-03-23T09:15:20;22.80;38.50
19389;DHT22;9830;41.876;23.474;2023-03-23T09:17:48;23.50;36.90
19389;DHT22;9830;41.876;23.474;2023-03-23T09:20:18;24.30;36.20
19389;DHT22;9830;41.876;23.474;2023-03-23T09:22:48;23.80;34.70
19389;DHT22;9830;41.876;23.474;2023-03-23T09:25:17;24.40;33.10
19389;DHT22;9830;41.876;23.474;2023-03-23T09:27:46;23.70;34.40
19389;DHT22;9830;41.876;23.474;2023-03-23T09:30:16;23.40;33.60
19389;DHT22;9830;41.876;23.474;2023-03-23T09:32:45;23.60;33.20
19389;DHT22;9830;41.876;23.474;2023-03-23T09:35:11;24.20;33.30
19389;DHT22;9830;41.876;23.474;2023-03-23T09:37:39;24.50;31.20
19389;DHT22;9830;41.876;23.474;2023-03-23T09:40:09;24.70;30.90
19389;DHT22;9830;41.876;23.474;2023-03-23T09:50:46;24.40;30.50
19389;DHT22;9830;41.876;23.474;2023-03-23T09:53:35;25.70;28.70
19389;DHT22;9830;41.876;23.474;2023-03-23T09:56:10;24.90;29.50
19389;DHT22;9830;41.876;23.474;2023-03-23T09:58:49;23.90;29.30
19389;DHT22;9830;41.876;23.474;2023-03-23T10:01:26;24.30;30.30
19389;DHT22;9830;41.876;23.474;2023-03-23T10:04:46;23.00;29.90
19389;DHT22;9830;41.876;23.474;2023-03-23T10:06:46;22.10;31.50
19389;DHT22;9830;41.876;23.474;2023-03-23T10:09:15;22.30;32.00
19389;DHT22;9830;41.876;23.474;2023-03-23T10:15:02;21.10;34.30
19389;DHT22;9830;41.876;23.474;2023-03-23T10:17:57;21.00;35.50
19389;DHT22;9830;41.876;23.474;2023-03-23T10:20:41;21.00;35.40
19389;DHT22;9830;41.876;23.474;2023-03-23T10:23:37;20.80;35.20
19389;DHT22;9830;41.876;23.474;2023-03-23T10:28:48;21.10;36.20
19389;DHT22;9830;41.876;23.474;2023-03-23T10:31:20;21.60;36.40
19389;DHT22;9830;41.876;23.474;2023-03-23T10:33:50;21.80;34.60
19389;DHT22;9830;41.876;23.474;2023-03-23T10:37:22;22.00;35.20
19389;DHT22;9830;41.876;23.474;2023-03-23T10:39:31;21.60;34.50
19389;DHT22;9830;41.876;23.474;2023-03-23T10:41:59;21.30;34.80
19389;DHT22;9830;41.876;23.474;2023-03-23T10:44:33;21.40;35.10
19389;DHT22;9830;41.876;23.474;2023-03-23T10:47:05;22.20;33.00
19389;DHT22;9830;41.876;23.474;2023-03-23T10:49:42;21.20;33.20
19389;DHT22;9830;41.876;23.474;2023-03-23T10:52:40;20.70;33.80
19389;DHT22;9830;41.876;23.474;2023-03-23T10:55:18;20.90;34.40
19389;DHT22;9830;41.876;23.474;2023-03-23T10:58:01;20.60;35.10
19389;DHT22;9830;41.876;23.474;2023-03-23T11:00:28;20.20;33.80
19389;DHT22;9830;41.876;23.474;2023-03-23T11:03:01;19.30;34.20
19389;DHT22;9830;41.876;23.474;2023-03-23T11:05:56;19.90;34.60
19389;DHT22;9830;41.876;23.474;2023-03-23T11:08:46;20.30;34.00
19389;DHT22;9830;41.876;23.474;2023-03-23T11:13:47;20.90;31.60
19389;DHT22;9830;41.876;23.474;2023-03-23T11:16:24;20.40;33.70
19389;DHT22;9830;41.876;23.474;2023-03-23T11:18:55;20.60;33.20
19389;DHT22;9830;41.876;23.474;2023-03-23T11:21:23;20.60;33.30
19389;DHT22;9830;41.876;23.474;2023-03-23T11:23:52;21.00;34.30
19389;DHT22;9830;41.876;23.474;2023-03-23T11:29:12;20.90;32.90
19389;DHT22;9830;41.876;23.474;2023-03-23T11:31:46;20.60;33.20
19389;DHT22;9830;41.876;23.474;2023-03-23T11:34:21;21.00;34.60
19389;DHT22;9830;41.876;23.474;2023-03-23T11:37:00;21.10;33.70
19389;DHT22;9830;41.876;23.474;2023-03-23T11:39:34;21.30;33.10
19389;DHT22;9830;41.876;23.474;2023-03-23T11:42:17;21.40;33.50
19389;DHT22;9830;41.876;23.474;2023-03-23T11:44:44;20.80;32.80
19389;DHT22;9830;41.876;23.474;2023-03-23T11:47:30;20.30;32.40
19389;DHT22;9830;41.876;23.474;2023-03-23T11:50:17;20.30;33.80
19389;DHT22;9830;41.876;23.474;2023-03-23T11:53:00;20.30;32.90
19389;DHT22;9830;41.876;23.474;2023-03-23T11:55:35;20.20;33.60
19389;DHT22;9830;41.876;23.474;2023-03-23T11:58:11;20.10;35.00
19389;DHT22;9830;41.876;23.474;2023-03-23T12:00:42;20.20;36.00
19389;DHT22;9830;41.876;23.474;2023-03-23T12:14:41;21.20;37.90
19389;DHT22;9830;41.876;23.474;2023-03-23T12:23:08;21.60;36.20
19389;DHT22;9830;41.876;23.474;2023-03-23T12:34:39;19.80;40.30
19389;DHT22;9830;41.876;23.474;2023-03-23T12:40:05;19.90;41.00
19389;DHT22;9830;41.876;23.474;2023-03-23T12:42:45;20.10;39.80
19389;DHT22;9830;41.876;23.474;2023-03-23T12:48:05;19.10;40.70
19389;DHT22;9830;41.876;23.474;2023-03-23T12:50:58;18.70;45.60
19389;DHT22;9830;41.876;23.474;2023-03-23T12:53:32;18.50;42.30
19389;DHT22;9830;41.876;23.474;2023-03-23T12:59:33;18.20;43.70
19389;DHT22;9830;41.876;23.474;2023-03-23T13:01:46;18.00;43.70
19389;DHT22;9830;41.876;23.474;2023-03-23T13:04:23;17.70;45.40
19389;DHT22;9830;41.876;23.474;2023-03-23T13:06:51;17.50;46.90
19389;DHT22;9830;41.876;23.474;2023-03-23T13:09:52;17.50;47.70
19389;DHT22;9830;41.876;23.474;2023-03-23T13:12:21;18.10;45.70
19389;DHT22;9830;41.876;23.474;2023-03-23T13:15:28;18.50;45.30
19389;DHT22;9830;41.876;23.474;2023-03-23T13:28:47;18.90;45.40
19389;DHT22;9830;41.876;23.474;2023-03-23T13:31:16;18.40;48.30
19389;DHT22;9830;41.876;23.474;2023-03-23T13:33:49;17.80;49.30
19389;DHT22;9830;41.876;23.474;2023-03-23T13:36:29;17.50;51.30
19389;DHT22;9830;41.876;23.474;2023-03-23T13:39:01;17.40;54.40
19389;DHT22;9830;41.876;23.474;2023-03-23T13:41:30;17.20;53.30
19389;DHT22;9830;41.876;23.474;2023-03-23T13:44:23;17.20;52.80
19389;DHT22;9830;41.876;23.474;2023-03-23T13:47:03;17.30;52.70
19389;DHT22;9830;41.876;23.474;2023-03-23T13:49:32;17.30;53.20
19389;DHT22;9830;41.876;23.474;2023-03-23T13:52:21;17.20;54.70
19389;DHT22;9830;41.876;23.474;2023-03-23T13:55:07;17.20;54.40
19389;DHT22;9830;41.876;23.474;2023-03-23T13:57:55;17.30;52.60
19389;DHT22;9830;41.876;23.474;2023-03-23T14:05:45;17.10;53.00
19389;DHT22;9830;41.876;23.474;2023-03-23T14:10:43;16.90;51.30
19389;DHT22;9830;41.876;23.474;2023-03-23T14:13:41;16.70;53.00
19389;DHT22;9830;41.876;23.474;2023-03-23T14:16:18;16.50;53.90
19389;DHT22;9830;41.876;23.474;2023-03-23T14:18:54;16.50;56.40
19389;DHT22;9830;41.876;23.474;2023-03-23T14:21:34;16.50;56.60
19389;DHT22;9830;41.876;23.474;2023-03-23T14:24:11;16.40;54.60
19389;DHT22;9830;41.876;23.474;2023-03-23T14:26:39;16.30;54.40
19389;DHT22;9830;41.876;23.474;2023-03-23T14:29:06;16.10;55.00
19389;DHT22;9830;41.876;23.474;2023-03-23T14:31:34;15.80;55.70
19389;DHT22;9830;41.876;23.474;2023-03-23T14:34:11;15.50;57.30
19389;DHT22;9830;41.876;23.474;2023-03-23T14:36:39;15.40;58.30
19389;DHT22;9830;41.876;23.474;2023-03-23T14:39:26;15.30;58.80
19389;DHT22;9830;41.876;23.474;2023-03-23T14:42:00;15.30;60.00
19389;DHT22;9830;41.876;23.474;2023-03-23T14:44:31;15.40;57.50
19389;DHT22;9830;41.876;23.474;2023-03-23T14:47:04;15.70;57.50
19389;DHT22;9830;41.876;23.474;2023-03-23T14:49:34;16.00;56.00
19389;DHT22;9830;41.876;23.474;2023-03-23T14:52:11;16.20;54.70
19389;DHT22;9830;41.876;23.474;2023-03-23T14:54:39;16.20;55.70
19389;DHT22;9830;41.876;23.474;2023-03-23T14:59:40;16.10;55.60
19389;DHT22;9830;41.876;23.474;2023-03-23T15:02:08;16.00;54.90
19389;DHT22;9830;41.876;23.474;2023-03-23T15:04:35;15.90;53.20
19389;DHT22;9830;41.876;23.474;2023-03-23T15:07:04;15.90;55.30
19389;DHT22;9830;41.876;23.474;2023-03-23T15:09:30;15.80;56.80
19389;DHT22;9830;41.876;23.474;2023-03-23T15:12:02;15.70;55.50
19389;DHT22;9830;41.876;23.474;2023-03-23T15:14:49;15.60;55.70
19389;DHT22;9830;41.876;23.474;2023-03-23T15:17:23;15.70;56.60
19389;DHT22;9830;41.876;23.474;2023-03-23T15:19:51;15.70;56.50
19389;DHT22;9830;41.876;23.474;2023-03-23T15:22:25;15.70;56.00
19389;DHT22;9830;41.876;23.474;2023-03-23T15:24:54;15.60;56.20
19389;DHT22;9830;41.876;23.474;2023-03-23T15:27:33;15.60;55.80
19389;DHT22;9830;41.876;23.474;2023-03-23T15:30:15;15.50;56.20
19389;DHT22;9830;41.876;23.474;2023-03-23T15:32:43;15.40;56.00
19389;DHT22;9830;41.876;23.474;2023-03-23T15:35:16;15.30;56.80
19389;DHT22;9830;41.876;23.474;2023-03-23T15:37:53;15.20;57.00
19389;DHT22;9830;41.876;23.474;2023-03-23T15:40:27;15.00;57.90
19389;DHT22;9830;41.876;23.474;2023-03-23T15:43:21;14.90;58.80
19389;DHT22;9830;41.876;23.474;2023-03-23T15:46:19;14.80;58.80
19389;DHT22;9830;41.876;23.474;2023-03-23T15:49:14;14.60;60.00
19389;DHT22;9830;41.876;23.474;2023-03-23T15:51:42;14.40;61.70
19389;DHT22;9830;41.876;23.474;2023-03-23T15:54:13;14.30;62.30
19389;DHT22;9830;41.876;23.474;2023-03-23T15:56:39;14.20;64.30
19389;DHT22;9830;41.876;23.474;2023-03-23T15:59:05;14.00;67.30
19389;DHT22;9830;41.876;23.474;2023-03-23T16:01:36;13.90;68.40
19389;DHT22;9830;41.876;23.474;2023-03-23T16:04:05;13.90;70.50
19389;DHT22;9830;41.876;23.474;2023-03-23T16:06:33;13.80;67.80
19389;DHT22;9830;41.876;23.474;2023-03-23T16:09:00;13.80;67.70
19389;DHT22;9830;41.876;23.474;2023-03-23T16:11:27;13.70;67.30
19389;DHT22;9830;41.876;23.474;2023-03-23T16:13:57;13.70;64.90
19389;DHT22;9830;41.876;23.474;2023-03-23T16:16:36;13.60;65.70
19389;DHT22;9830;41.876;23.474;2023-03-23T16:19:03;13.60;66.40
19389;DHT22;9830;41.876;23.474;2023-03-23T16:21:29;13.40;71.10
19389;DHT22;9830;41.876;23.474;2023-03-23T16:23:56;13.30;72.70
19389;DHT22;9830;41.876;23.474;2023-03-23T16:26:23;13.10;74.30
19389;DHT22;9830;41.876;23.474;2023-03-23T16:28:48;13.00;75.20
19389;DHT22;9830;41.876;23.474;2023-03-23T16:31:14;12.90;75.90
19389;DHT22;9830;41.876;23.474;2023-03-23T16:33:40;12.80;78.00
19389;DHT22;9830;41.876;23.474;2023-03-23T16:36:09;12.70;78.30
19389;DHT22;9830;41.876;23.474;2023-03-23T16:38:39;12.50;78.50
19389;DHT22;9830;41.876;23.474;2023-03-23T16:41:05;12.40;77.80
19389;DHT22;9830;41.876;23.474;2023-03-23T16:43:35;12.40;80.00
19389;DHT22;9830;41.876;23.474;2023-03-23T16:46:02;12.30;81.20
19389;DHT22;9830;41.876;23.474;2023-03-23T16:48:31;12.20;83.70
19389;DHT22;9830;41.876;23.474;2023-03-23T16:50:57;12.10;83.00
19389;DHT22;9830;41.876;23.474;2023-03-23T16:53:23;12.10;84.40
19389;DHT22;9830;41.876;23.474;2023-03-23T16:55:52;12.00;85.50
19389;DHT22;9830;41.876;23.474;2023-03-23T16:58:18;11.90;89.30
19389;DHT22;9830;41.876;23.474;2023-03-23T17:00:49;11.80;89.10
19389;DHT22;9830;41.876;23.474;2023-03-23T17:03:17;11.70;89.70
19389;DHT22;9830;41.876;23.474;2023-03-23T17:05:44;11.60;90.50
19389;DHT22;9830;41.876;23.474;2023-03-23T17:08:10;11.50;91.10
19389;DHT22;9830;41.876;23.474;2023-03-23T17:10:38;11.50;91.40
19389;DHT22;9830;41.876;23.474;2023-03-23T17:13:04;11.40;92.00
19389;DHT22;9830;41.876;23.474;2023-03-23T17:15:29;11.30;92.50
19389;DHT22;9830;41.876;23.474;2023-03-23T17:17:55;11.10;93.10
19389;DHT22;9830;41.876;23.474;2023-03-23T17:20:22;11.10;93.50
19389;DHT22;9830;41.876;23.474;2023-03-23T17:22:48;11.00;94.00
19389;DHT22;9830;41.876;23.474;2023-03-23T17:25:15;10.90;94.20
19389;DHT22;9830;41.876;23.474;2023-03-23T17:27:41;10.90;94.60
19389;DHT22;9830;41.876;23.474;2023-03-23T17:30:08;10.90;94.70
19389;DHT22;9830;41.876;23.474;2023-03-23T17:32:34;10.80;95.10
19389;DHT22;9830;41.876;23.474;2023-03-23T17:35:01;10.80;95.50
19389;DHT22;9830;41.876;23.474;2023-03-23T17:37:29;10.70;95.60
19389;DHT22;9830;41.876;23.474;2023-03-23T17:39:55;10.70;95.70
19389;DHT22;9830;41.876;23.474;2023-03-23T17:42:23;10.60;96.50
19389;DHT22;9830;41.876;23.474;2023-03-23T17:44:50;10.50;97.90
19389;DHT22;9830;41.876;23.474;2023-03-23T17:47:16;10.30;99.90
19389;DHT22;9830;41.876;23.474;2023-03-23T17:49:42;10.10;99.90
19389;DHT22;9830;41.876;23.474;2023-03-23T17:52:08;9.90;99.90
19389;DHT22;9830;41.876;23.474;2023-03-23T17:54:35;9.70;99.90
19389;DHT22;9830;41.876;23.474;2023-03-23T17:57:01;9.50;99.90
19389;DHT22;9830;41.876;23.474;2023-03-23T17:59:30;9.40;99.90
19389;DHT22;9830;41.876;23.474;2023-03-23T18:01:56;9.20;99.90
19389;DHT22;9830;41.876;23.474;2023-03-23T18:04:22;9.00;99.90
19389;DHT22;9830;41.876;23.474;2023-03-23T18:06:49;8.80;99.90
19389;DHT22;9830;41.876;23.474;2023-03-23T18:09:15;8.60;99.90
19389;DHT22;9830;41.876;23.474;2023-03-23T18:11:41;8.40;99.90
19389;DHT22;9830;41.876;23.474;2023-03-23T18:14:07;8.30;99.90
19389;DHT22;9830;41.876;23.474;2023-03-23T18:16:32;8.10;99.90
19389;DHT22;9830;41.876;23.474;2023-03-23T18:18:58;8.00;99.90
19389;DHT22;9830;41.876;23.474;2023-03-23T18:21:25;7.90;99.90
19389;DHT22;9830;41.876;23.474;2023-03-23T18:23:51;7.80;99.90
19389;DHT22;9830;41.876;23.474;2023-03-23T18:26:17;7.70;99.90
19389;DHT22;9830;41.876;23.474;2023-03-23T18:28:47;7.60;99.90
19389;DHT22;9830;41.876;23.474;2023-03-23T18:31:15;7.40;99.90
19389;DHT22;9830;41.876;23.474;2023-03-23T18:33:42;7.30;99.90
19389;DHT22;9830;41.876;23.474;2023-03-23T18:36:13;7.20;99.90
19389;DHT22;9830;41.876;23.474;2023-03-23T18:38:39;7.20;99.90
19389;DHT22;9830;41.876;23.474;2023-03-23T18:41:09;7.10;99.90
19389;DHT22;9830;41.876;23.474;2023-03-23T18:43:35;7.00;99.90
19389;DHT22;9830;41.876;23.474;2023-03-23T18:46:02;6.90;99.90
19389;DHT22;9830;41.876;23.474;2023-03-23T18:48:28;6.80;99.90
19389;DHT22;9830;41.876;23.474;2023-03-23T18:50:55;6.70;99.90
19389;DHT22;9830;41.876;23.474;2023-03-23T18:53:22;6.70;99.90
19389;DHT22;9830;41.876;23.474;2023-03-23T18:55:49;6.60;99.90
19389;DHT22;9830;41.876;23.474;2023-03-23T18:58:16;6.60;99.90
19389;DHT22;9830;41.876;23.474;2023-03-23T19:00:43;6.40;99.90
19389;DHT22;9830;41.876;23.474;2023-03-23T19:03:09;6.40;99.90
19389;DHT22;9830;41.876;23.474;2023-03-23T19:05:36;6.30;99.90
19389;DHT22;9830;41.876;23.474;2023-03-23T19:08:03;6.30;99.90
19389;DHT22;9830;41.876;23.474;2023-03-23T19:10:31;6.30;99.90
19389;DHT22;9830;41.876;23.474;2023-03-23T19:13:00;6.10;99.90
19389;DHT22;9830;41.876;23.474;2023-03-23T19:15:25;6.10;99.90
19389;DHT22;9830;41.876;23.474;2023-03-23T19:17:51;6.10;99.90
19389;DHT22;9830;41.876;23.474;2023-03-23T19:20:21;6.00;99.90
19389;DHT22;9830;41.876;23.474;2023-03-23T19:22:47;6.00;99.90
19389;DHT22;9830;41.876;23.474;2023-03-23T19:25:13;6.00;99.90
19389;DHT22;9830;41.876;23.474;2023-03-23T19:27:39;5.90;99.90
19389;DHT22;9830;41.876;23.474;2023-03-23T19:30:07;5.90;99.90
19389;DHT22;9830;41.876;23.474;2023-03-23T19:32:34;5.80;99.90
19389;DHT22;9830;41.876;23.474;2023-03-23T19:35:00;5.70;99.90
19389;DHT22;9830;41.876;23.474;2023-03-23T19:37:26;5.70;99.90
19389;DHT22;9830;41.876;23.474;2023-03-23T19:39:52;5.60;99.90
19389;DHT22;9830;41.876;23.474;2023-03-23T19:42:18;5.60;99.90
19389;DHT22;9830;41.876;23.474;2023-03-23T19:44:45;5.60;99.90
19389;DHT22;9830;41.876;23.474;2023-03-23T19:47:11;5.50;99.90
19389;DHT22;9830;41.876;23.474;2023-03-23T19:49:37;5.40;99.90
19389;DHT22;9830;41.876;23.474;2023-03-23T19:52:04;5.40;99.90
19389;DHT22;9830;41.876;23.474;2023-03-23T19:54:30;5.30;99.90
19389;DHT22;9830;41.876;23.474;2023-03-23T19:56:57;5.20;99.90
19389;DHT22;9830;41.876;23.474;2023-03-23T19:59:23;5.20;99.90
19389;DHT22;9830;41.876;23.474;2023-03-23T20:01:48;5.10;99.90
19389;DHT22;9830;41.876;23.474;2023-03-23T20:04:15;5.10;99.90
19389;DHT22;9830;41.876;23.474;2023-03-23T20:06:43;5.10;99.90
19389;DHT22;9830;41.876;23.474;2023-03-23T20:09:09;5.00;99.90
19389;DHT22;9830;41.876;23.474;2023-03-23T20:11:35;5.00;99.90
19389;DHT22;9830;41.876;23.474;2023-03-23T20:14:00;4.90;99.90
19389;DHT22;9830;41.876;23.474;2023-03-23T20:16:26;4.80;99.90
19389;DHT22;9830;41.876;23.474;2023-03-23T20:18:53;4.80;99.90
19389;DHT22;9830;41.876;23.474;2023-03-23T20:21:20;4.80;99.90
19389;DHT22;9830;41.876;23.474;2023-03-23T20:23:48;4.80;99.90
19389;DHT22;9830;41.876;23.474;2023-03-23T20:26:20;4.70;99.90
19389;DHT22;9830;41.876;23.474;2023-03-23T20:28:46;4.70;99.90
19389;DHT22;9830;41.876;23.474;2023-03-23T20:31:15;4.60;99.90
19389;DHT22;9830;41.876;23.474;2023-03-23T20:33:41;4.50;99.90
19389;DHT22;9830;41.876;23.474;2023-03-23T20:36:10;4.50;99.90
19389;DHT22;9830;41.876;23.474;2023-03-23T20:38:37;4.50;99.90
19389;DHT22;9830;41.876;23.474;2023-03-23T20:41:06;4.40;99.90
19389;DHT22;9830;41.876;23.474;2023-03-23T20:43:36;4.40;99.90
19389;DHT22;9830;41.876;23.474;2023-03-23T20:46:03;4.30;99.90
19389;DHT22;9830;41.876;23.474;2023-03-23T20:48:31;4.20;99.90
19389;DHT22;9830;41.876;23.474;2023-03-23T20:50:58;4.20;99.90
19389;DHT22;9830;41.876;23.474;2023-03-23T20:53:26;4.10;99.90
19389;DHT22;9830;41.876;23.474;2023-03-23T20:55:54;4.10;99.90
19389;DHT22;9830;41.876;23.474;2023-03-23T20:58:20;4.10;99.90
19389;DHT22;9830;41.876;23.474;2023-03-23T21:00:49;4.00;99.90
19389;DHT22;9830;41.876;23.474;2023-03-23T21:03:15;4.00;99.90
19389;DHT22;9830;41.876;23.474;2023-03-23T21:05:42;4.00;99.90
19389;DHT22;9830;41.876;23.474;2023-03-23T21:08:09;3.90;99.90
19389;DHT22;9830;41.876;23.474;2023-03-23T21:10:38;3.80;99.90
19389;DHT22;9830;41.876;23.474;2023-03-23T21:13:05;3.80;99.90
19389;DHT22;9830;41.876;23.474;2023-03-23T21:15:31;3.70;99.90
19389;DHT22;9830;41.876;23.474;2023-03-23T21:17:58;3.60;99.90
19389;DHT22;9830;41.876;23.474;2023-03-23T21:20:24;3.60;99.90
19389;DHT22;9830;41.876;23.474;2023-03-23T21:22:50;3.60;99.90
19389;DHT22;9830;41.876;23.474;2023-03-23T21:25:16;3.60;99.90
19389;DHT22;9830;41.876;23.474;2023-03-23T21:27:42;3.50;99.90
19389;DHT22;9830;41.876;23.474;2023-03-23T21:30:08;3.50;99.90
19389;DHT22;9830;41.876;23.474;2023-03-23T21:32:33;3.60;99.90
19389;DHT22;9830;41.876;23.474;2023-03-23T21:34:59;3.50;99.90
19389;DHT22;9830;41.876;23.474;2023-03-23T21:37:28;3.50;99.90
19389;DHT22;9830;41.876;23.474;2023-03-23T21:39:54;3.50;99.90
19389;DHT22;9830;41.876;23.474;2023-03-23T21:42:20;3.20;99.90
19389;DHT22;9830;41.876;23.474;2023-03-23T21:44:45;3.10;99.90
19389;DHT22;9830;41.876;23.474;2023-03-23T21:47:12;3.10;99.90
19389;DHT22;9830;41.876;23.474;2023-03-23T21:49:38;3.00;99.90
19389;DHT22;9830;41.876;23.474;2023-03-23T21:52:03;2.90;99.90
19389;DHT22;9830;41.876;23.474;2023-03-23T21:54:30;2.90;99.90
19389;DHT22;9830;41.876;23.474;2023-03-23T21:56:59;2.80;99.90
19389;DHT22;9830;41.876;23.474;2023-03-23T21:59:25;2.80;99.90
19389;DHT22;9830;41.876;23.474;2023-03-23T22:01:50;2.70;99.90
19389;DHT22;9830;41.876;23.474;2023-03-23T22:04:18;2.70;99.90
19389;DHT22;9830;41.876;23.474;2023-03-23T22:06:44;2.70;99.90
19389;DHT22;9830;41.876;23.474;2023-03-23T22:09:10;2.70;99.90
19389;DHT22;9830;41.876;23.474;2023-03-23T22:11:36;2.70;99.90
19389;DHT22;9830;41.876;23.474;2023-03-23T22:14:03;2.50;99.90
19389;DHT22;9830;41.876;23.474;2023-03-23T22:16:29;2.40;99.90
19389;DHT22;9830;41.876;23.474;2023-03-23T22:18:56;2.40;99.90
19389;DHT22;9830;41.876;23.474;2023-03-23T22:21:24;2.40;99.90
19389;DHT22;9830;41.876;23.474;2023-03-23T22:23:51;2.50;99.90
19389;DHT22;9830;41.876;23.474;2023-03-23T22:26:18;2.50;99.90
19389;DHT22;9830;41.876;23.474;2023-03-23T22:28:45;2.50;99.90
19389;DHT22;9830;41.876;23.474;2023-03-23T22:31:20;2.50;99.90
19389;DHT22;9830;41.876;23.474;2023-03-23T22:33:48;2.40;99.90
19389;DHT22;9830;41.876;23.474;2023-03-23T22:36:15;2.30;99.90
19389;DHT22;9830;41.876;23.474;2023-03-23T22:38:43;2.30;99.90
19389;DHT22;9830;41.876;23.474;2023-03-23T22:41:22;2.40;99.90
19389;DHT22;9830;41.876;23.474;2023-03-23T22:43:49;2.40;99.90
19389;DHT22;9830;41.876;23.474;2023-03-23T22:46:16;2.40;99.90
19389;DHT22;9830;41.876;23.474;2023-03-23T22:48:42;2.40;99.90
19389;DHT22;9830;41.876;23.474;2023-03-23T22:51:08;2.40;99.90
19389;DHT22;9830;41.876;23.474;2023-03-23T22:53:35;2.40;99.90
19389;DHT22;9830;41.876;23.474;2023-03-23T22:56:00;2.40;99.90
19389;DHT22;9830;41.876;23.474;2023-03-23T22:58:27;2.40;99.90
19389;DHT22;9830;41.876;23.474;2023-03-23T23:01:03;2.30;99.90
19389;DHT22;9830;41.876;23.474;2023-03-23T23:03:30;2.20;99.90
19389;DHT22;9830;41.876;23.474;2023-03-23T23:05:57;2.20;99.90
19389;DHT22;9830;41.876;23.474;2023-03-23T23:08:24;2.20;99.90
19389;DHT22;9830;41.876;23.474;2023-03-23T23:10:51;2.10;99.90
19389;DHT22;9830;41.876;23.474;2023-03-23T23:13:18;1.70;99.90
19389;DHT22;9830;41.876;23.474;2023-03-23T23:15:49;1.70;99.90
19389;DHT22;9830;41.876;23.474;2023-03-23T23:18:15;1.60;99.90
19389;DHT22;9830;41.876;23.474;2023-03-23T23:20:41;1.60;99.90
19389;DHT22;9830;41.876;23.474;2023-03-23T23:23:07;1.40;99.90
19389;DHT22;9830;41.876;23.474;2023-03-23T23:25:34;1.40;99.90
19389;DHT22;9830;41.876;23.474;2023-03-23T23:28:00;1.40;99.90
19389;DHT22;9830;41.876;23.474;2023-03-23T23:30:27;1.50;99.90
19389;DHT22;9830;41.876;23.474;2023-03-23T23:32:54;1.40;99.90
19389;DHT22;9830;41.876;23.474;2023-03-23T23:35:21;1.20;99.90
19389;DHT22;9830;41.876;23.474;2023-03-23T23:37:48;1.20;99.90
19389;DHT22;9830;41.876;23.474;2023-03-23T23:40:14;1.20;99.90
19389;DHT22;9830;41.876;23.474;2023-03-23T23:42:42;1.30;99.90
19389;DHT22;9830;41.876;23.474;2023-03-23T23:45:08;1.30;99.90
19389;DHT22;9830;41.876;23.474;2023-03-23T23:47:38;1.30;99.90
19389;DHT22;9830;41.876;23.474;2023-03-23T23:50:05;1.40;99.90
19389;DHT22;9830;41.876;23.474;2023-03-23T23:52:32;1.40;99.90
19389;DHT22;9830;41.876;23.474;2023-03-23T23:54:58;1.40;99.90
19389;DHT22;9830;41.876;23.474;2023-03-23T23:57:24;1.30;99.90
19389;DHT22;9830;41.876;23.474;2023-03-23T23:59:50;1.20;99.90
